Time;durP1;ratioP1;P1;durP2;ratioP2;P2;SDS_P1;SDS_P2;PMS_P1;PMS_P2;Temp;Humidity;BMP_temperature;BMP_pressure;BME280_temperature;BME280_humidity;BME280_pressure;Samples;Min_cycle;Max_cycle;Signal;HPM_P1;HPM_P2
2022/08/31 00:05:23;;;;;;;2.90;1.98;;;;;;;15.40;72.91;102297.28;5013396;28;20459;-77
2022/08/31 00:07:50;;;;;;;5.25;2.10;;;;;;;15.35;72.88;102290.53;5013261;28;20047;-77
2022/08/31 00:10:19;;;;;;;2.03;1.75;;;;;;;15.34;72.80;102293.66;5027934;28;20499;-77
2022/08/31 00:13:04;;;;;;;5.78;1.90;;;;;;;15.32;72.70;102291.41;5011904;28;20057;-76
2022/08/31 00:15:38;;;;;;;2.40;2.03;;;;;;;15.29;73.00;102283.47;5011839;28;20111;-77
2022/08/31 00:18:04;;;;;;;2.83;2.13;;;;;;;15.25;73.15;102283.59;5013266;28;20050;-76
2022/08/31 00:20:32;;;;;;;2.10;2.00;;;;;;;15.22;73.01;102273.72;5012987;28;20050;-76
2022/08/31 00:23:11;;;;;;;5.85;2.00;;;;;;;15.19;72.97;102279.22;5012831;28;20046;-76
2022/08/31 00:25:40;;;;;;;4.78;2.20;;;;;;;15.16;73.19;102285.47;5012250;28;20059;-76
2022/08/31 00:28:08;;;;;;;6.00;2.00;;;;;;;15.13;73.49;102284.41;5013080;28;20046;-76
2022/08/31 00:30:35;;;;;;;4.15;1.92;;;;;;;15.11;73.48;102289.44;5012989;28;20057;-76
2022/08/31 00:33:01;;;;;;;1.92;1.80;;;;;;;15.09;73.18;102291.06;5012729;28;20554;-76
2022/08/31 00:35:30;;;;;;;2.20;1.98;;;;;;;15.07;73.58;102286.13;5012824;28;20108;-76
2022/08/31 00:37:58;;;;;;;2.33;1.98;;;;;;;15.04;73.66;102281.63;5012867;28;20043;-76
2022/08/31 00:40:25;;;;;;;3.80;1.63;;;;;;;14.99;73.48;102290.97;5012257;28;20078;-76
2022/08/31 00:42:53;;;;;;;2.03;1.92;;;;;;;14.97;73.64;102287.97;5027983;28;20125;-76
2022/08/31 00:45:20;;;;;;;1.92;1.80;;;;;;;14.94;73.77;102283.47;5027966;28;20055;-76
2022/08/31 00:47:47;;;;;;;1.83;1.73;;;;;;;14.91;74.02;102281.66;5027790;28;20177;-76
2022/08/31 00:50:16;;;;;;;2.20;2.00;;;;;;;14.86;74.13;102276.81;5028131;28;20054;-76
2022/08/31 00:52:47;;;;;;;6.25;2.10;;;;;;;14.86;74.14;102292.16;5012490;28;20046;-76
2022/08/31 00:55:20;;;;;;;2.67;2.00;;;;;;;14.83;73.89;102275.00;5027622;28;20133;-76
2022/08/31 00:57:50;;;;;;;3.33;1.80;;;;;;;14.83;74.20;102279.63;5027841;28;20042;-76
2022/08/31 01:00:20;;;;;;;2.63;1.80;;;;;;;14.80;74.18;102283.91;5012236;28;20491;-76
2022/08/31 01:02:48;;;;;;;7.85;2.00;;;;;;;14.77;74.13;102286.72;5027828;28;20054;-77
2022/08/31 01:05:16;;;;;;;2.10;1.90;;;;;;;14.73;74.20;102278.78;5011176;28;20065;-76
2022/08/31 01:07:46;;;;;;;2.22;2.03;;;;;;;14.73;74.44;102291.44;5027624;28;20042;-76
2022/08/31 01:10:15;;;;;;;1.90;1.80;;;;;;;14.67;74.44;102285.88;5010637;28;20105;-76
2022/08/31 01:12:44;;;;;;;2.08;1.83;;;;;;;14.66;74.91;102293.16;5027339;28;20137;-76
2022/08/31 01:15:13;;;;;;;1.95;1.85;;;;;;;14.62;74.48;102289.09;5027267;28;20054;-76
2022/08/31 01:17:41;;;;;;;2.38;1.50;;;;;;;14.59;74.60;102284.59;5027265;28;20053;-76
2022/08/31 01:20:29;;;;;;;2.30;1.88;;;;;;;14.56;74.57;102288.13;5012315;28;20046;-76
2022/08/31 01:23:07;;;;;;;1.70;1.60;;;;;;;14.52;74.72;102276.75;5011872;28;20042;-76
2022/08/31 01:25:38;;;;;;;2.38;1.80;;;;;;;14.48;74.86;102284.16;5012117;28;20109;-76
2022/08/31 01:28:06;;;;;;;3.63;2.00;;;;;;;14.45;75.13;102287.69;5012358;28;20109;-76
2022/08/31 01:30:33;;;;;;;2.17;2.08;;;;;;;14.42;75.35;102285.84;5012055;28;20143;-76
2022/08/31 01:33:00;;;;;;;2.20;2.10;;;;;;;14.40;75.22;102285.50;5011943;28;20045;-77
2022/08/31 01:35:29;;;;;;;5.07;1.88;;;;;;;14.35;75.24;102284.13;5000987;28;20062;-77
2022/08/31 01:37:57;;;;;;;1.95;1.67;;;;;;;14.33;75.33;102283.81;5026128;28;20043;-76
2022/08/31 01:40:33;;;;;;;2.20;1.80;;;;;;;14.29;75.35;102291.19;5010522;28;20141;-76
2022/08/31 01:42:59;;;;;;;4.80;1.92;;;;;;;14.25;75.56;102288.63;5012103;28;20562;-76
2022/08/31 01:45:26;;;;;;;1.90;1.80;;;;;;;14.24;75.93;102286.38;5028182;28;20058;-76
2022/08/31 01:47:52;;;;;;;3.05;2.13;;;;;;;14.20;75.83;102289.16;5015566;28;20050;-77
2022/08/31 01:50:19;;;;;;;1.90;1.80;;;;;;;14.19;75.34;102290.31;5030689;28;20062;-77
2022/08/31 01:52:46;;;;;;;2.03;1.85;;;;;;;14.17;75.78;102294.59;5013641;28;20089;-77
2022/08/31 01:55:12;;;;;;;2.47;1.95;;;;;;;14.12;75.51;102290.53;5014015;28;20062;-77
2022/08/31 01:57:39;;;;;;;2.05;1.95;;;;;;;14.09;75.82;102286.03;5030359;28;20053;-77
2022/08/31 02:00:18;;;;;;;1.80;1.70;;;;;;;14.08;75.67;102289.88;5014969;28;20042;-77
2022/08/31 02:02:46;;;;;;;2.10;1.90;;;;;;;14.04;75.96;102289.22;5013703;28;20082;-77
2022/08/31 02:05:13;;;;;;;3.03;2.00;;;;;;;14.02;75.91;102289.66;5013779;28;20061;-77
2022/08/31 02:07:40;;;;;;;2.15;1.80;;;;;;;14.01;75.94;102287.38;4996423;28;20121;-77
2022/08/31 02:10:07;;;;;;;3.40;1.92;;;;;;;13.97;76.16;102284.84;5025274;28;20500;-77
2022/08/31 02:12:34;;;;;;;2.78;2.10;;;;;;;13.96;75.96;102287.94;5006151;28;20057;-77
2022/08/31 02:15:00;;;;;;;2.05;1.95;;;;;;;13.92;76.07;102284.59;5013445;28;20489;-77
2022/08/31 02:17:27;;;;;;;1.73;1.63;;;;;;;13.92;75.78;102287.28;5013389;28;20050;-76
2022/08/31 02:19:53;;;;;;;1.63;1.60;;;;;;;13.90;75.89;102290.38;5029978;28;20046;-77
2022/08/31 02:22:20;;;;;;;1.73;1.63;;;;;;;13.89;75.73;102285.44;4996847;28;20051;-77
2022/08/31 02:24:47;;;;;;;1.88;1.77;;;;;;;13.85;75.79;102280.19;5013056;28;20482;-77
2022/08/31 02:27:13;;;;;;;1.80;1.70;;;;;;;13.84;75.92;102288.66;5030101;28;20129;-76
2022/08/31 02:29:40;;;;;;;3.85;1.80;;;;;;;13.81;75.73;102284.91;5013337;28;20050;-76
2022/08/31 02:32:08;;;;;;;2.63;1.67;;;;;;;13.79;75.92;102297.94;5029836;28;20484;-77
2022/08/31 02:34:46;;;;;;;3.17;1.70;;;;;;;13.77;75.88;102294.94;5014909;28;20049;-76
2022/08/31 02:37:14;;;;;;;3.58;1.90;;;;;;;13.75;75.88;102291.19;5029512;28;20515;-77
2022/08/31 02:39:42;;;;;;;4.13;2.00;;;;;;;13.72;75.99;102292.78;4996570;28;20050;-76
2022/08/31 02:42:10;;;;;;;3.00;1.73;;;;;;;13.71;75.69;102293.97;5019274;28;20054;-76
2022/08/31 02:44:38;;;;;;;1.80;1.70;;;;;;;13.66;76.05;102297.91;4996990;28;20050;-76
2022/08/31 02:47:04;;;;;;;2.60;1.92;;;;;;;13.64;76.07;102299.50;5012981;28;20060;-76
2022/08/31 02:49:46;;;;;;;1.98;1.80;;;;;;;13.61;75.93;102301.09;5029422;28;20047;-76
2022/08/31 02:52:13;;;;;;;2.75;1.83;;;;;;;13.58;76.29;102296.59;5014566;28;20093;-76
2022/08/31 02:54:40;;;;;;;1.80;1.70;;;;;;;13.55;76.49;102297.44;5029438;28;20054;-76
2022/08/31 02:57:06;;;;;;;2.28;1.88;;;;;;;13.53;76.14;102294.44;5027737;28;20533;-76
2022/08/31 02:59:33;;;;;;;2.28;2.00;;;;;;;13.53;76.12;102293.69;5012886;28;20061;-76
2022/08/31 03:02:00;;;;;;;2.13;2.00;;;;;;;13.48;76.27;102292.28;5029291;28;20472;-75
2022/08/31 03:04:28;;;;;;;3.88;2.03;;;;;;;13.47;76.50;102285.41;5012247;28;20562;-76
2022/08/31 03:06:56;;;;;;;1.83;1.60;;;;;;;13.44;76.36;102288.19;5029107;28;20129;-76
2022/08/31 03:09:23;;;;;;;1.67;1.58;;;;;;;13.42;75.99;102293.97;5029287;28;20046;-76
2022/08/31 03:11:49;;;;;;;1.70;1.60;;;;;;;13.40;76.50;102293.63;5005991;28;20196;-76
2022/08/31 03:14:16;;;;;;;3.10;1.80;;;;;;;13.38;76.35;102295.22;5009597;28;20512;-76
2022/08/31 03:16:44;;;;;;;1.67;1.58;;;;;;;13.35;76.21;102291.47;5010964;28;20133;-76
2022/08/31 03:19:12;;;;;;;1.67;1.58;;;;;;;13.34;76.67;102297.97;5012325;28;20046;-76
2022/08/31 03:21:38;;;;;;;1.88;1.77;;;;;;;13.32;76.30;102290.38;5012846;28;20073;-76
2022/08/31 03:24:06;;;;;;;2.65;1.85;;;;;;;13.29;76.67;102288.53;5011865;28;20055;-77
2022/08/31 03:26:32;;;;;;;1.85;1.75;;;;;;;13.29;76.52;102295.81;5014319;28;20454;-76
2022/08/31 03:28:59;;;;;;;2.22;1.95;;;;;;;13.27;76.31;102295.47;5029205;28;20050;-76
2022/08/31 03:31:54;;;;;;;3.35;1.70;;;;;;;13.25;75.80;102298.56;5013468;28;20053;-76
2022/08/31 03:34:23;;;;;;;2.03;1.70;;;;;;;13.25;75.93;102295.16;5011938;28;20066;-76
2022/08/31 03:36:49;;;;;;;9.60;2.10;;;;;;;13.25;75.50;102292.47;5012409;28;20581;-76
2022/08/31 03:39:16;;;;;;;1.75;1.65;;;;;;;13.23;75.90;102298.25;5012435;28;20047;-75
2022/08/31 03:41:43;;;;;;;1.77;1.67;;;;;;;13.22;75.50;102298.66;5028805;28;20085;-76
2022/08/31 03:44:11;;;;;;;2.22;1.80;;;;;;;13.20;75.67;102298.31;5004147;28;20082;-76
2022/08/31 03:46:44;;;;;;;3.47;1.90;;;;;;;13.15;75.68;102296.91;5025015;28;20192;-76
2022/08/31 03:49:11;;;;;;;1.88;1.77;;;;;;;13.12;75.56;102299.66;4999530;28;20455;-76
2022/08/31 03:51:44;;;;;;;3.05;2.00;;;;;;;13.08;75.79;102299.75;5012125;28;20492;-76
2022/08/31 03:54:11;;;;;;;3.65;2.00;;;;;;;13.05;76.18;102300.59;5011870;28;20058;-76
2022/08/31 03:56:39;;;;;;;1.80;1.70;;;;;;;13.04;75.90;102299.06;5028573;28;20414;-76
2022/08/31 03:59:07;;;;;;;1.70;1.60;;;;;;;13.00;75.95;102298.41;5028653;28;20049;-76
2022/08/31 04:01:56;;;;;;;2.20;1.73;;;;;;;13.00;76.14;102304.50;5030095;28;20542;-76
2022/08/31 04:04:42;;;;;;;2.35;1.95;;;;;;;12.96;75.98;102303.06;5029509;28;20054;-76
2022/08/31 04:07:27;;;;;;;1.95;1.80;;;;;;;12.92;75.52;102305.84;5029919;28;20057;-76
2022/08/31 04:10:13;;;;;;;2.25;2.00;;;;;;;12.89;76.03;102309.34;5028813;28;20050;-76
2022/08/31 04:12:58;;;;;;;1.65;1.55;;;;;;;12.86;75.43;102304.06;5029348;28;20061;-76
2022/08/31 04:15:36;;;;;;;2.22;1.70;;;;;;;12.85;75.62;102311.34;4996759;28;20498;-76
2022/08/31 04:18:21;;;;;;;3.22;1.80;;;;;;;12.82;75.36;102311.41;4990826;28;20051;-76
2022/08/31 04:20:48;;;;;;;1.70;1.60;;;;;;;12.81;75.37;102312.59;5006566;28;20474;-76
2022/08/31 04:23:15;;;;;;;2.10;1.92;;;;;;;12.78;75.39;102306.19;5029407;28;20519;-76
2022/08/31 04:25:48;;;;;;;2.75;1.50;;;;;;;12.75;75.26;102312.34;4993755;28;20055;-77
2022/08/31 04:28:15;;;;;;;2.78;1.98;;;;;;;12.74;75.61;102310.09;5010974;28;20050;-76
2022/08/31 04:30:43;;;;;;;3.78;1.80;;;;;;;12.72;75.04;102310.50;4993954;28;20092;-76
2022/08/31 04:33:14;;;;;;;1.88;1.77;;;;;;;12.72;74.63;102310.50;5010158;28;20056;-76
2022/08/31 04:35:41;;;;;;;2.03;1.83;;;;;;;12.69;74.68;102319.34;4994019;28;20050;-76
2022/08/31 04:38:09;;;;;;;1.98;1.80;;;;;;;12.68;74.96;102317.84;4991700;28;20061;-76
2022/08/31 04:40:40;;;;;;;1.92;1.83;;;;;;;12.68;74.24;102317.84;4991755;28;20118;-76
2022/08/31 04:43:07;;;;;;;2.15;1.75;;;;;;;12.66;74.48;102315.59;4991541;28;20086;-76
2022/08/31 04:45:38;;;;;;;1.85;1.75;;;;;;;12.66;74.08;102315.59;4991349;28;20051;-76
2022/08/31 04:48:05;;;;;;;;;;;;;;;12.65;73.60;102314.09;4990907;28;20078;-76
2022/08/31 04:50:32;;;;;;;3.88;1.77;;;;;;;12.65;73.31;102316.00;5007460;28;19925;-76
2022/08/31 04:53:08;;;;;;;2.25;1.73;;;;;;;12.64;73.31;102317.94;5025062;28;20046;-76
2022/08/31 04:55:38;;;;;;;2.25;1.50;;;;;;;12.63;73.29;102318.34;5010648;28;20053;-77
2022/08/31 04:58:06;;;;;;;4.55;1.50;;;;;;;12.63;72.75;102321.75;5027616;28;20069;-76
2022/08/31 05:00:34;;;;;;;3.83;1.70;;;;;;;12.63;72.83;102329.03;5026958;28;20464;-77
2022/08/31 05:03:19;;;;;;;1.75;1.65;;;;;;;12.63;72.35;102323.69;5040829;23;20447;-79
2022/08/31 05:05:51;;;;;;;6.10;1.50;;;;;;;12.63;72.24;102329.03;4956320;28;20102;-79
2022/08/31 05:08:19;;;;;;;1.77;1.40;;;;;;;12.64;72.24;102327.84;4972590;28;20577;-79
2022/08/31 05:10:47;;;;;;;1.60;1.27;;;;;;;12.64;72.36;102330.53;4988860;28;20047;-79
2022/08/31 05:13:13;;;;;;;1.70;1.60;;;;;;;12.64;71.67;102330.53;4988683;28;20433;-79
2022/08/31 05:15:42;;;;;;;1.63;1.52;;;;;;;12.63;71.78;102326.34;4972769;28;20113;-79
2022/08/31 05:18:11;;;;;;;1.48;1.38;;;;;;;12.64;70.97;102335.88;4971660;28;20508;-79
2022/08/31 05:20:45;;;;;;;1.65;1.52;;;;;;;12.63;71.01;102337.78;4970491;28;20420;-79
2022/08/31 05:23:12;;;;;;;1.77;1.42;;;;;;;12.65;70.84;102335.47;4971603;28;20051;-80
2022/08/31 05:25:39;;;;;;;7.95;1.50;;;;;;;12.65;70.49;102340.06;4987805;28;20061;-79
2022/08/31 05:28:07;;;;;;;1.45;1.35;;;;;;;12.65;70.64;102338.13;4971492;28;20078;-79
2022/08/31 05:30:34;;;;;;;1.27;1.17;;;;;;;12.66;70.21;102339.63;4987469;28;20205;-79
2022/08/31 05:33:06;;;;;;;2.25;1.38;;;;;;;12.68;69.85;102344.56;4987778;28;20073;-80
2022/08/31 05:35:33;;;;;;;1.55;1.17;;;;;;;12.68;69.90;102348.00;4955594;28;20052;-80
2022/08/31 05:38:00;;;;;;;1.52;1.33;;;;;;;12.71;69.76;102343.00;4971868;28;20048;-80
2022/08/31 05:40:27;;;;;;;1.42;1.10;;;;;;;12.74;69.31;102336.81;4971480;28;20055;-80
2022/08/31 05:42:55;;;;;;;3.38;1.20;;;;;;;12.76;69.28;102345.16;4973138;28;20047;-81
2022/08/31 05:45:21;;;;;;;1.33;1.23;;;;;;;12.80;69.15;102341.22;4987638;28;20051;-81
2022/08/31 05:47:49;;;;;;;1.17;1.13;;;;;;;13.80;67.14;102330.81;4972604;28;20047;-80
2022/08/31 05:50:17;;;;;;;1.23;1.13;;;;;;;15.68;61.01;102341.22;4973189;28;20047;-79
2022/08/31 05:52:44;;;;;;;1.38;1.27;;;;;;;17.14;55.91;102344.63;4971625;28;20058;-79
2022/08/31 05:55:11;;;;;;;0.98;0.98;;;;;;;17.92;52.93;102338.66;4971271;28;20083;-79
2022/08/31 05:57:39;;;;;;;1.30;1.20;;;;;;;18.71;50.29;102341.25;4971517;28;20074;-77
2022/08/31 06:00:08;;;;;;;1.42;1.30;;;;;;;19.52;48.46;102344.63;4970840;28;20496;-79
2022/08/31 06:02:38;;;;;;;2.03;1.02;;;;;;;19.70;47.38;102340.25;4970291;28;20051;-80
2022/08/31 06:05:08;;;;;;;2.55;1.00;;;;;;;20.19;45.87;102348.47;4972291;28;20059;-79
2022/08/31 06:07:35;;;;;;;3.38;1.30;;;;;;;20.16;45.42;102354.81;4971279;28;20055;-79
2022/08/31 06:10:08;;;;;;;7.72;1.42;;;;;;;20.06;46.57;102352.66;4971295;28;20055;-80
2022/08/31 06:12:36;;;;;;;4.25;1.13;;;;;;;19.84;45.96;102361.16;4970652;28;20058;-82
2022/08/31 06:15:04;;;;;;;2.63;1.10;;;;;;;19.79;46.01;102357.13;4971124;28;20059;-81
2022/08/31 06:17:33;;;;;;;0.90;0.90;;;;;;;19.67;46.47;102358.13;4971059;28;20067;-84
2022/08/31 06:20:04;;;;;;;4.57;1.00;;;;;;;19.71;46.24;102360.66;4970961;28;20058;-78
2022/08/31 06:22:35;;;;;;;1.70;1.10;;;;;;;19.48;47.12;102359.50;4972388;28;20123;-84
2022/08/31 06:25:05;;;;;;;0.98;0.85;;;;;;;18.93;48.00;102355.19;4971189;28;20134;-81
2022/08/31 06:27:33;;;;;;;2.30;0.70;;;;;;;18.40;49.14;102362.31;4970409;28;20575;-80
2022/08/31 06:30:00;;;;;;;2.85;1.13;;;;;;;17.93;51.03;102358.25;4970817;28;20504;-78
2022/08/31 06:32:31;;;;;;;1.10;0.90;;;;;;;17.57;51.36;102359.00;4973636;28;20047;-78
2022/08/31 06:35:06;;;;;;;3.65;0.98;;;;;;;17.04;53.05;102361.94;4974220;28;20159;-79
2022/08/31 06:37:59;;;;;;;1.17;1.08;;;;;;;16.99;53.43;102362.50;4973952;28;20520;-81
2022/08/31 06:40:58;;;;;;;6.22;1.00;;;;;;;16.82;54.01;102363.94;4974236;28;20056;-82
2022/08/31 06:43:43;;;;;;;0.93;0.85;;;;;;;16.84;54.56;102372.31;4987951;28;20042;-79
2022/08/31 06:46:31;;;;;;;2.33;1.20;;;;;;;16.80;55.29;102369.00;4975737;28;20094;-81
2022/08/31 06:49:18;;;;;;;1.20;1.10;;;;;;;16.76;55.13;102382.63;4988407;28;20058;-80
2022/08/31 06:51:44;;;;;;;1.27;1.17;;;;;;;16.77;55.29;102381.44;4974071;28;20055;-79
2022/08/31 06:54:13;;;;;;;2.65;1.10;;;;;;;16.82;55.03;102378.13;4990202;28;20051;-79
2022/08/31 06:57:13;;;;;;;13.57;1.35;;;;;;;16.82;55.34;102370.06;4973372;28;20055;-78
2022/08/31 06:59:52;;;;;;;1.10;0.95;;;;;;;16.84;55.77;102369.63;4973968;28;20051;-78
2022/08/31 07:02:42;;;;;;;1.05;1.00;;;;;;;16.97;55.68;102381.78;4974925;28;20490;-78
2022/08/31 07:05:09;;;;;;;3.97;1.10;;;;;;;17.01;56.77;102384.34;4973206;28;20062;-78
2022/08/31 07:07:45;;;;;;;0.80;0.80;;;;;;;17.07;56.16;102389.88;4975539;28;20053;-77
2022/08/31 07:10:12;;;;;;;2.35;1.00;;;;;;;17.14;55.74;102395.00;4973599;28;20043;-76
2022/08/31 07:12:39;;;;;;;1.00;0.80;;;;;;;17.14;55.68;102387.66;4974782;28;20039;-76
2022/08/31 07:15:06;;;;;;;2.95;1.17;;;;;;;17.13;55.90;102390.81;4973376;28;20501;-76
2022/08/31 07:17:32;;;;;;;1.02;1.02;;;;;;;17.15;56.08;102396.50;4973291;28;20059;-76
2022/08/31 07:20:02;;;;;;;4.25;1.20;;;;;;;17.26;56.79;102402.91;4973394;28;20158;-76
2022/08/31 07:22:29;;;;;;;3.55;1.58;;;;;;;17.32;56.16;102395.00;4957785;28;20638;-79
2022/08/31 07:25:10;;;;;;;2.85;1.42;;;;;;;17.44;56.27;102393.38;4972950;28;20267;-78
2022/08/31 07:27:38;;;;;;;1.48;1.05;;;;;;;17.53;55.95;102388.03;4973279;28;20062;-79
2022/08/31 07:30:06;;;;;;;1.73;1.17;;;;;;;17.61;55.58;102400.72;4973051;28;20044;-79
2022/08/31 07:32:32;;;;;;;1.85;0.90;;;;;;;17.69;55.73;102403.91;4973286;28;20513;-78
2022/08/31 07:35:00;;;;;;;1.27;1.10;;;;;;;17.75;55.49;102410.19;4973364;28;20098;-80
2022/08/31 07:43:08;;;;;;;2.38;1.10;;;;;;;17.99;55.95;102396.88;4988809;28;20493;-81
2022/08/31 07:45:36;;;;;;;1.50;1.00;;;;;;;18.11;55.34;102397.88;4973236;28;20083;-80
2022/08/31 07:48:05;;;;;;;2.33;1.85;;;;;;;18.17;55.36;102398.78;4972948;28;20504;-80
2022/08/31 07:50:58;;;;;;;2.85;1.27;;;;;;;18.29;55.74;102405.94;4971271;28;20055;-81
2022/08/31 07:53:46;;;;;;;6.45;1.25;;;;;;;18.44;55.17;102398.69;4973218;28;20145;-81
2022/08/31 07:56:52;;;;;;;1.88;1.13;;;;;;;18.65;55.09;102400.47;4978816;28;20532;-81
2022/08/31 07:59:20;;;;;;;;;;;;;;;18.84;55.42;102401.13;4973829;28;20059;-79
2022/08/31 08:01:48;;;;;;;2.97;1.92;;;;;;;18.91;54.55;102403.47;4989632;28;19957;-81
2022/08/31 08:04:20;;;;;;;3.70;1.70;;;;;;;18.95;53.96;102404.06;4988602;28;20110;-80
2022/08/31 08:07:21;;;;;;;1.80;1.20;;;;;;;19.09;54.61;102410.00;4973394;28;20103;-78
2022/08/31 08:09:54;;;;;;;1.48;1.38;;;;;;;19.13;54.43;102407.88;4971499;28;20047;-79
2022/08/31 08:12:49;;;;;;;1.27;1.27;;;;;;;19.39;54.42;102413.56;4972629;28;20047;-79
2022/08/31 08:15:31;;;;;;;6.28;1.27;;;;;;;19.52;53.57;102408.69;4999060;28;20085;-79
2022/08/31 08:18:15;;;;;;;2.85;1.38;;;;;;;19.54;53.84;102403.59;5008671;28;20061;-79
2022/08/31 08:20:47;;;;;;;1.48;1.35;;;;;;;19.74;53.32;102405.66;4992369;28;20078;-79
2022/08/31 08:23:16;;;;;;;1.40;1.30;;;;;;;19.90;52.77;102402.53;4975919;28;20050;-80
2022/08/31 08:26:07;;;;;;;4.07;1.30;;;;;;;19.94;52.92;102411.19;4992044;28;20058;-79
2022/08/31 08:28:53;;;;;;;1.13;1.13;;;;;;;20.07;53.18;102403.56;4991344;28;20055;-79
2022/08/31 08:31:21;;;;;;;1.17;1.17;;;;;;;20.21;52.36;102404.78;4991960;28;20134;-78
2022/08/31 08:33:50;;;;;;;1.40;1.30;;;;;;;20.39;52.37;102411.97;4991902;28;20215;-80
2022/08/31 08:36:18;;;;;;;1.20;1.10;;;;;;;20.48;52.08;102404.50;4991966;28;20047;-79
2022/08/31 08:38:49;;;;;;;2.15;1.25;;;;;;;20.66;51.72;102406.25;4991073;28;20050;-79
2022/08/31 08:41:20;;;;;;;2.67;1.20;;;;;;;20.81;50.72;102409.66;4991910;28;20417;-80
2022/08/31 08:43:52;;;;;;;2.50;1.20;;;;;;;20.80;50.72;102404.69;4991853;28;20054;-78
2022/08/31 08:46:38;;;;;;;1.85;1.20;;;;;;;20.88;51.36;102406.53;4991748;28;20054;-78
2022/08/31 08:49:27;;;;;;;1.15;1.15;;;;;;;21.02;51.07;102399.59;4991073;28;20078;-79
2022/08/31 08:52:02;;;;;;;1.77;1.20;;;;;;;21.19;49.52;102391.69;4987564;28;20070;-78
2022/08/31 08:54:33;;;;;;;4.72;1.40;;;;;;;21.20;49.71;102399.31;4991882;28;20058;-78
2022/08/31 08:57:24;;;;;;;1.70;1.20;;;;;;;21.26;49.87;102405.59;4991471;28;20051;-78
2022/08/31 08:59:57;;;;;;;1.30;1.20;;;;;;;21.38;50.08;102398.34;4990731;28;20066;-79
2022/08/31 09:02:54;;;;;;;1.65;1.10;;;;;;;21.57;50.08;102404.97;4992885;28;20122;-80
2022/08/31 09:05:43;;;;;;;2.97;1.20;;;;;;;21.69;50.04;102394.97;4974587;28;20050;-77
2022/08/31 09:08:44;;;;;;;3.95;1.25;;;;;;;21.75;49.19;102398.50;4992181;28;20042;-82
2022/08/31 09:11:27;;;;;;;2.15;1.67;;;;;;;21.86;48.83;102395.16;4992972;28;20082;-80
2022/08/31 09:14:18;;;;;;;6.90;1.25;;;;;;;21.99;48.30;102398.25;4991544;28;20133;-81
2022/08/31 09:17:00;;;;;;;4.85;1.30;;;;;;;22.06;48.02;102392.41;4991658;28;20039;-79
2022/08/31 09:19:27;;;;;;;1.92;1.42;;;;;;;22.01;47.54;102400.44;4991235;28;20474;-81
2022/08/31 09:21:56;;;;;;;1.40;1.20;;;;;;;22.02;47.22;102393.84;4990936;28;20053;-79
2022/08/31 09:24:26;;;;;;;9.48;1.33;;;;;;;22.02;47.67;102389.16;4974859;28;20051;-83
2022/08/31 09:27:38;;;;;;;5.80;1.25;;;;;;;22.27;47.84;102399.25;4991288;28;20047;-79
2022/08/31 09:30:06;;;;;;;6.22;1.50;;;;;;;22.42;46.76;102398.34;4991274;28;20057;-75
2022/08/31 09:32:35;;;;;;;3.92;1.13;;;;;;;22.44;47.01;102393.19;4992263;28;20051;-85
2022/08/31 09:35:07;;;;;;;1.75;1.45;;;;;;;22.44;46.46;102402.06;4990838;28;20047;-78
2022/08/31 09:37:44;;;;;;;1.88;1.15;;;;;;;22.42;45.67;102401.06;4992088;28;20051;-79
2022/08/31 09:40:35;;;;;;;1.75;1.30;;;;;;;22.33;46.86;102403.97;4992375;28;20043;-78
2022/08/31 09:43:01;;;;;;;2.42;1.55;;;;;;;22.38;46.19;102403.28;4992206;28;20047;-81
2022/08/31 09:45:35;;;;;;;2.88;1.08;;;;;;;22.43;46.43;102394.41;4990914;28;20058;-80
2022/08/31 09:48:07;;;;;;;2.22;1.25;;;;;;;22.42;45.67;102409.19;4990744;28;20054;-78
2022/08/31 09:50:36;;;;;;;1.48;1.38;;;;;;;22.47;46.05;102392.97;4991753;28;20102;-77
2022/08/31 09:56:14;;;;;;;2.90;1.40;;;;;;;22.59;44.99;102389.09;4991933;28;20287;-78
2022/08/31 09:58:43;;;;;;;6.60;1.17;;;;;;;22.68;45.13;102399.03;4992206;28;20526;-80
2022/08/31 10:01:18;;;;;;;3.25;1.10;;;;;;;22.70;45.31;102387.69;5007013;28;20047;-77
2022/08/31 10:03:46;;;;;;;1.27;1.17;;;;;;;22.78;44.75;102388.72;4992264;28;20090;-80
2022/08/31 10:06:33;;;;;;;5.15;1.40;;;;;;;22.92;45.49;102390.53;4992507;28;20047;-76
2022/08/31 10:09:09;;;;;;;3.95;1.20;;;;;;;23.03;43.68;102389.84;4995300;28;20057;-78
2022/08/31 10:11:38;;;;;;;2.75;1.42;;;;;;;22.88;42.81;102388.03;4995554;28;20042;-79
2022/08/31 10:14:18;;;;;;;1.38;1.27;;;;;;;22.99;43.91;102386.63;4995258;28;20055;-77
2022/08/31 10:16:52;;;;;;;3.35;1.40;;;;;;;23.16;44.40;102384.72;4993861;28;20491;-78
2022/08/31 10:19:31;;;;;;;1.38;1.35;;;;;;;23.49;44.53;102381.38;4995232;28;20050;-78
2022/08/31 10:22:03;;;;;;;1.67;1.40;;;;;;;23.78;42.27;102382.91;4995236;28;20042;-80
2022/08/31 10:24:44;;;;;;;4.28;1.33;;;;;;;23.78;43.70;102380.19;4993946;28;20110;-78
2022/08/31 10:27:19;;;;;;;1.50;1.30;;;;;;;23.80;42.19;102381.19;4994674;28;20043;-78
2022/08/31 10:30:17;;;;;;;1.83;1.25;;;;;;;23.65;42.52;102383.38;4995672;28;20074;-80
2022/08/31 10:32:54;;;;;;;5.35;2.67;;;;;;;23.69;43.04;102372.28;4993384;28;20051;-83
2022/08/31 10:35:31;;;;;;;3.63;1.25;;;;;;;23.70;42.71;102371.78;4977275;28;20050;-83
2022/08/31 10:38:08;;;;;;;5.10;1.30;;;;;;;23.41;43.32;102369.47;4995460;28;20051;-82
2022/08/31 10:41:06;;;;;;;9.65;1.40;;;;;;;23.49;42.04;102367.78;4986254;28;20053;-80
2022/08/31 10:43:52;;;;;;;1.50;1.30;;;;;;;23.42;41.46;102366.28;4954720;28;20060;-79
2022/08/31 10:46:19;;;;;;;1.08;0.90;;;;;;;23.53;40.40;102365.59;4956222;28;20052;-78
2022/08/31 10:48:49;;;;;;;23.45;1.40;;;;;;;23.40;40.82;102362.56;4954131;28;20509;-80
2022/08/31 10:51:21;;;;;;;6.32;5.78;;;;;;;23.20;40.71;102369.66;4956109;28;20052;-79
2022/08/31 10:54:17;;;;;;;4.18;1.30;;;;;;;23.16;41.16;102380.03;4954658;28;20524;-79
2022/08/31 10:56:57;;;;;;;2.20;1.30;;;;;;;23.13;40.83;102369.41;4954544;28;20047;-79
2022/08/31 10:59:36;;;;;;;1.95;1.25;;;;;;;23.20;40.83;102375.09;4955879;28;20505;-81
2022/08/31 11:02:22;;;;;;;0.98;0.98;;;;;;;23.38;41.76;102373.19;4954225;28;20060;-80
2022/08/31 11:05:28;;;;;;;4.93;1.38;;;;;;;23.50;41.32;102377.41;4954723;28;20059;-79
2022/08/31 11:08:14;;;;;;;2.30;1.17;;;;;;;23.47;41.69;102378.41;4955519;28;20078;-80
2022/08/31 11:10:48;;;;;;;3.78;1.20;;;;;;;23.43;41.48;102370.47;4955207;28;20489;-77
2022/08/31 11:13:48;;;;;;;2.08;1.10;;;;;;;23.43;41.23;102365.03;4955865;28;20099;-79
2022/08/31 11:16:37;;;;;;;4.60;1.40;;;;;;;23.30;41.21;102367.47;4954068;28;20051;-79
2022/08/31 11:19:30;;;;;;;1.92;1.00;;;;;;;23.34;41.72;102359.09;4953754;28;20048;-78
2022/08/31 11:22:36;;;;;;;1.30;1.30;;;;;;;23.50;41.32;102361.84;4955273;28;20509;-79
2022/08/31 11:25:14;;;;;;;3.10;1.38;;;;;;;23.44;41.00;102365.78;4954815;28;20080;-78
2022/08/31 11:27:47;;;;;;;2.00;1.60;;;;;;;23.59;41.26;102369.06;4953881;28;20107;-78
2022/08/31 11:30:23;;;;;;;4.68;1.20;;;;;;;23.60;40.30;102365.09;4955571;28;20055;-78
2022/08/31 11:32:58;;;;;;;2.67;1.15;;;;;;;23.49;41.13;102365.81;4953210;28;20115;-79
2022/08/31 11:35:48;;;;;;;2.40;1.30;;;;;;;23.58;41.20;102362.88;4955123;28;20420;-78
2022/08/31 11:38:41;;;;;;;8.90;1.52;;;;;;;23.59;41.32;102355.47;4953915;28;20513;-78
2022/08/31 11:41:12;;;;;;;2.35;1.20;;;;;;;23.57;41.02;102355.97;4954729;28;20099;-78
2022/08/31 11:43:44;;;;;;;1.42;1.33;;;;;;;23.51;40.77;102343.56;4955157;28;20048;-78
2022/08/31 11:46:27;;;;;;;3.17;1.48;;;;;;;23.46;40.78;102345.03;4952650;28;20047;-79
2022/08/31 11:48:53;;;;;;;1.20;1.20;;;;;;;23.40;41.16;102346.25;4953398;28;20151;-78
2022/08/31 11:51:31;;;;;;;4.57;1.70;;;;;;;23.43;40.78;102346.03;4954960;28;20516;-78
2022/08/31 11:54:10;;;;;;;5.57;1.40;;;;;;;23.51;41.59;102346.28;4954698;28;20525;-77
2022/08/31 11:56:40;;;;;;;1.70;1.30;;;;;;;23.55;41.06;102333.97;4954411;28;20098;-78
2022/08/31 11:59:30;;;;;;;3.25;1.30;;;;;;;23.58;40.93;102340.41;4953404;28;20051;-78
2022/08/31 12:02:18;;;;;;;3.25;1.33;;;;;;;23.59;41.87;102348.03;4952756;28;20052;-76
2022/08/31 12:04:49;;;;;;;1.50;1.40;;;;;;;23.43;41.11;102340.59;4954281;28;20513;-83
2022/08/31 12:07:32;;;;;;;3.97;1.58;;;;;;;23.30;41.12;102334.88;4936671;28;20061;-81
2022/08/31 12:10:22;;;;;;;1.55;1.45;;;;;;;23.26;41.42;102332.38;4954396;28;20051;-83